createdAt,value
2018-07-10T05:04:09.533Z,19.83
2018-07-10T05:09:12.867Z,19.84
2018-07-10T05:14:16.190Z,19.73
2018-07-10T05:25:13.398Z,19.69
2018-07-10T05:30:21.055Z,19.72
2018-07-10T05:35:24.387Z,19.73
2018-07-10T05:40:33.566Z,19.80
2018-07-10T05:45:36.903Z,19.67
2018-07-10T05:50:40.994Z,19.65
2018-07-10T05:55:44.319Z,19.45
2018-07-10T06:01:05.870Z,19.44
2018-07-10T06:06:09.202Z,19.06
2018-07-10T06:11:13.308Z,19.10
2018-07-10T06:16:16.703Z,19.03
2018-07-10T06:21:19.995Z,19.30
2018-07-10T06:26:23.322Z,19.37
2018-07-10T06:31:26.660Z,19.41
2018-07-10T06:36:30.015Z,19.33
2018-07-10T06:41:33.363Z,19.51
2018-07-10T06:46:36.695Z,19.48
2018-07-10T06:51:40.019Z,19.78
2018-07-10T06:56:44.126Z,19.83
2018-07-10T07:01:47.455Z,19.93
2018-07-10T07:06:50.782Z,19.89
2018-07-10T07:11:54.885Z,19.99
2018-07-10T07:16:58.230Z,20.19
2018-07-10T07:22:02.331Z,20.28
2018-07-10T07:27:05.661Z,20.31
2018-07-10T07:32:09.754Z,20.34
2018-07-10T07:37:13.083Z,20.36
2018-07-10T07:42:16.416Z,20.47
2018-07-10T07:47:20.510Z,20.49
2018-07-10T07:52:23.859Z,20.76
2018-07-10T07:57:27.196Z,20.89
2018-07-10T08:02:30.532Z,20.95
2018-07-10T08:07:33.867Z,20.81
2018-07-10T08:12:37.208Z,20.98
2018-07-10T08:17:40.538Z,21.05
2018-07-10T08:22:44.631Z,21.10
2018-07-10T08:27:47.980Z,20.94
2018-07-10T08:32:52.079Z,21.15
2018-07-10T08:37:55.402Z,21.38
2018-07-10T08:42:58.762Z,21.40
2018-07-10T08:48:02.107Z,21.53
2018-07-10T08:53:05.500Z,21.68
2018-07-10T08:58:08.828Z,21.61
2018-07-10T09:03:12.166Z,21.62
2018-07-10T09:08:15.491Z,21.53
2018-07-10T09:13:19.587Z,21.54
2018-07-10T09:18:22.914Z,21.66
2018-07-10T09:23:26.255Z,21.51
2018-07-10T09:28:30.386Z,21.55
2018-07-10T09:33:34.614Z,21.49
2018-07-10T09:38:38.606Z,21.28
2018-07-10T09:43:41.942Z,21.44
2018-07-10T09:48:45.283Z,21.49
2018-07-10T09:53:48.620Z,21.34
2018-07-10T09:58:51.962Z,21.32
2018-07-10T10:03:55.297Z,21.52
2018-07-10T10:08:58.634Z,21.19
2018-07-10T10:14:01.976Z,21.45
2018-07-10T10:19:05.312Z,21.84
2018-07-10T10:24:09.421Z,21.96
2018-07-10T10:29:12.762Z,21.98
2018-07-10T10:34:16.103Z,21.93
2018-07-10T10:39:34.866Z,22.01
2018-07-10T10:44:38.955Z,22.15
2018-07-10T10:50:10.040Z,22.07
2018-07-10T10:55:13.381Z,22.16
2018-07-10T11:00:28.574Z,22.32
2018-07-10T11:05:32.687Z,22.26
2018-07-10T11:11:00.799Z,22.35
2018-07-10T11:16:04.130Z,22.87
2018-07-10T11:21:07.481Z,23.12
2018-07-10T11:26:10.838Z,23.04
2018-07-10T11:31:14.932Z,22.95
2018-07-10T11:36:18.259Z,23.48
2018-07-10T11:41:21.602Z,23.30
2018-07-10T11:46:24.984Z,23.24
2018-07-10T11:51:28.424Z,23.12
2018-07-10T11:56:31.754Z,22.92
2018-07-10T12:01:35.147Z,22.94
2018-07-10T12:06:38.519Z,22.93
2018-07-10T12:11:41.912Z,22.94
2018-07-10T12:16:45.300Z,23.16
2018-07-10T12:21:48.691Z,23.38
2018-07-10T12:26:52.877Z,23.93
2018-07-10T12:31:56.267Z,24.15
2018-07-10T12:36:59.690Z,24.19
2018-07-10T12:42:03.026Z,24.17
2018-07-10T12:47:06.347Z,24.40
2018-07-10T12:52:09.680Z,24.45
2018-07-10T12:57:13.002Z,24.79
2018-07-10T13:02:17.107Z,24.96
2018-07-10T13:07:20.439Z,24.70
2018-07-10T13:12:23.762Z,24.33
2018-07-10T13:17:27.870Z,24.69
2018-07-10T13:22:31.198Z,24.81
2018-07-10T13:27:34.527Z,25.03
2018-07-10T13:32:38.617Z,24.95
2018-07-10T13:37:41.951Z,25.04
2018-07-10T13:42:45.283Z,25.51
2018-07-10T13:47:49.398Z,25.23
2018-07-10T13:52:52.723Z,25.00
2018-07-10T13:57:56.827Z,25.70
2018-07-10T14:03:00.154Z,26.51
2018-07-10T14:08:03.486Z,26.91
2018-07-10T14:13:07.583Z,26.63
2018-07-10T14:18:10.934Z,27.08
2018-07-10T14:23:15.303Z,26.48
2018-07-10T14:28:18.668Z,27.24
2018-07-10T14:33:22.786Z,26.85
2018-07-10T14:38:26.475Z,23.88
2018-07-10T14:43:29.825Z,21.35
2018-07-10T14:48:33.397Z,19.59
2018-07-10T14:53:36.746Z,18.21
2018-07-10T14:58:40.251Z,18.77
2018-07-10T15:03:43.643Z,19.31
2018-07-10T15:08:46.994Z,20.11
2018-07-10T15:13:50.335Z,19.91
2018-07-10T15:18:53.672Z,19.78
2018-07-10T15:23:56.996Z,19.54
2018-07-10T15:29:00.375Z,19.25
2018-07-10T15:34:03.716Z,18.95
2018-07-10T15:39:07.042Z,19.32
2018-07-10T15:44:10.377Z,19.31
2018-07-10T15:49:13.707Z,19.64
2018-07-10T15:54:17.038Z,20.31
2018-07-10T15:59:20.362Z,21.37
2018-07-10T16:04:23.687Z,21.37
2018-07-10T16:09:28.970Z,21.34
2018-07-10T16:14:32.299Z,20.77
2018-07-10T16:19:35.645Z,20.26
2018-07-10T16:24:38.985Z,19.72
2018-07-10T16:29:53.150Z,19.61
2018-07-10T16:34:56.470Z,19.43
2018-07-10T16:39:59.840Z,19.51
2018-07-10T16:45:03.947Z,19.78
2018-07-10T16:50:07.287Z,19.95
2018-07-10T16:55:11.382Z,20.15
2018-07-10T17:00:29.054Z,20.06
2018-07-10T17:05:33.158Z,20.13
2018-07-10T17:10:38.419Z,20.18
2018-07-10T17:15:41.762Z,20.30
2018-07-10T17:20:49.859Z,20.22
2018-07-10T17:25:53.203Z,20.16
2018-07-10T17:30:57.300Z,20.33
2018-07-10T17:36:00.647Z,20.39
2018-07-10T17:41:03.983Z,20.38
2018-07-10T17:46:07.330Z,20.29
2018-07-10T17:51:10.675Z,20.42
2018-07-10T17:56:14.040Z,20.81
2018-07-10T18:01:17.482Z,21.30
2018-07-10T18:06:21.642Z,22.10
2018-07-10T18:11:25.784Z,22.38
2018-07-10T18:16:29.156Z,22.29
2018-07-10T18:21:32.462Z,22.19
2018-07-10T18:26:35.792Z,21.90
2018-07-10T18:31:39.114Z,21.72
2018-07-10T18:36:43.199Z,21.62
2018-07-10T18:41:46.528Z,21.51
2018-07-10T18:46:49.856Z,21.31
2018-07-10T18:51:53.195Z,21.25
2018-07-10T18:56:57.354Z,21.22
2018-07-10T19:02:01.019Z,21.09
2018-07-10T19:07:05.489Z,20.97
2018-07-10T19:12:09.136Z,20.79
2018-07-10T19:17:12.585Z,20.69
2018-07-10T19:22:16.021Z,20.65
2018-07-10T19:27:19.364Z,20.65
2018-07-10T19:32:22.699Z,20.61
2018-07-10T19:37:26.036Z,20.59
2018-07-10T19:42:29.376Z,20.57
2018-07-10T19:47:33.477Z,20.47
2018-07-10T19:52:36.865Z,20.39
2018-07-10T19:57:40.934Z,20.31
2018-07-10T20:02:45.043Z,20.30
2018-07-10T20:07:48.378Z,20.23
2018-07-10T20:12:51.758Z,20.18
2018-07-10T20:17:55.051Z,20.11
2018-07-10T20:22:58.383Z,20.08
2018-07-10T20:28:01.727Z,20.10
2018-07-10T20:33:05.115Z,20.09
2018-07-10T20:38:09.166Z,20.01
2018-07-10T20:43:12.495Z,19.84
2018-07-10T20:48:16.587Z,19.74
2018-07-10T20:53:19.911Z,19.73
2018-07-10T20:58:23.248Z,19.76
2018-07-10T21:03:27.354Z,19.76
2018-07-10T21:08:30.690Z,19.61
2018-07-10T21:13:34.023Z,19.51
2018-07-10T21:18:37.358Z,19.38
2018-07-10T21:23:40.686Z,19.25
2018-07-10T21:28:44.024Z,19.15
2018-07-10T21:33:47.351Z,18.98
2018-07-10T21:38:50.695Z,18.87
2018-07-10T21:43:54.035Z,18.85
2018-07-10T21:48:57.379Z,18.82
2018-07-10T21:54:00.714Z,18.76
2018-07-10T21:59:04.815Z,18.47
2018-07-10T22:04:08.160Z,18.36
2018-07-10T22:09:12.291Z,18.27
2018-07-10T22:14:16.575Z,18.13
2018-07-10T22:19:19.933Z,18.14
2018-07-10T22:24:24.054Z,18.08
2018-07-10T22:29:27.542Z,18.09
